createdAt,value
2023-04-10T00:01:02.882Z,2.90
2023-04-10T00:03:31.486Z,2.78
2023-04-10T00:05:59.531Z,2.60
2023-04-10T00:08:27.322Z,2.41
2023-04-10T00:10:57.076Z,2.35
2023-04-10T00:13:24.832Z,2.35
2023-04-10T00:15:52.625Z,2.25
2023-04-10T00:18:20.463Z,2.22
2023-04-10T00:20:48.299Z,2.17
2023-04-10T00:23:16.057Z,2.19
2023-04-10T00:25:43.858Z,2.22
2023-04-10T00:28:12.962Z,2.34
2023-04-10T00:30:40.851Z,2.42
2023-04-10T00:33:08.658Z,2.52
2023-04-10T00:35:36.600Z,2.57
2023-04-10T00:38:04.377Z,2.59
2023-04-10T00:40:32.191Z,2.53
2023-04-10T00:42:59.914Z,2.48
2023-04-10T00:45:29.146Z,2.47
2023-04-10T00:47:57.621Z,2.48
2023-04-10T00:50:25.717Z,2.40
2023-04-10T00:52:54.173Z,2.40
2023-04-10T00:55:22.015Z,2.47
2023-04-10T00:57:50.009Z,2.42
2023-04-10T01:00:18.762Z,2.36
2023-04-10T01:02:50.654Z,2.28
2023-04-10T01:05:18.681Z,2.17
2023-04-10T01:07:59.607Z,2.11
2023-04-10T01:10:35.678Z,2.08
2023-04-10T01:13:12.757Z,2.10
2023-04-10T01:15:48.866Z,2.10
2023-04-10T01:18:24.000Z,2.00
2023-04-10T01:20:51.733Z,2.02
2023-04-10T01:23:45.943Z,1.98
2023-04-10T01:26:17.369Z,1.92
2023-04-10T01:28:54.226Z,1.84
2023-04-10T01:31:28.427Z,1.77
2023-04-10T01:34:01.169Z,1.70
2023-04-10T01:36:37.951Z,1.67
2023-04-10T01:39:07.876Z,1.71
2023-04-10T01:41:36.984Z,1.65
2023-04-10T01:44:08.370Z,1.67
2023-04-10T01:46:39.156Z,1.66
2023-04-10T01:49:07.957Z,1.59
2023-04-10T01:51:36.660Z,1.61
2023-04-10T01:54:10.498Z,1.52
2023-04-10T01:56:39.220Z,1.51
2023-04-10T01:59:09.013Z,1.53
2023-04-10T02:01:37.038Z,1.55
2023-04-10T02:04:05.088Z,1.63
2023-04-10T02:06:42.640Z,1.64
2023-04-10T02:09:18.087Z,1.68
2023-04-10T02:11:55.762Z,1.66
2023-04-10T02:14:28.469Z,1.70
2023-04-10T02:16:57.430Z,1.75
2023-04-10T02:19:28.083Z,1.77
2023-04-10T02:21:56.911Z,1.84
2023-04-10T02:24:24.860Z,1.84
2023-04-10T02:26:53.745Z,1.79
2023-04-10T02:29:21.618Z,1.74
2023-04-10T02:31:53.090Z,1.76
2023-04-10T02:34:20.949Z,1.75
2023-04-10T02:36:48.772Z,1.70
2023-04-10T02:39:16.704Z,1.71
2023-04-10T02:41:50.613Z,1.65
2023-04-10T02:44:18.660Z,1.58
2023-04-10T02:46:46.591Z,1.53
2023-04-10T02:49:16.540Z,1.51
2023-04-10T02:51:45.604Z,1.43
2023-04-10T02:54:13.352Z,1.38
2023-04-10T02:56:43.137Z,1.39
2023-04-10T02:59:10.933Z,1.36
2023-04-10T03:01:39.427Z,1.34
2023-04-10T03:04:07.687Z,1.36
2023-04-10T03:06:41.036Z,1.37
2023-04-10T03:09:08.896Z,1.41
2023-04-10T03:11:36.825Z,1.40
2023-04-10T03:14:05.596Z,1.41
2023-04-10T03:16:33.617Z,1.31
2023-04-10T03:19:04.409Z,1.26
2023-04-10T03:21:32.377Z,1.18
2023-04-10T03:24:02.725Z,1.19
2023-04-10T03:26:30.712Z,1.17
2023-04-10T03:28:58.631Z,1.19
2023-04-10T03:31:26.424Z,1.18
2023-04-10T03:33:57.836Z,1.25
2023-04-10T03:36:27.409Z,1.31
2023-04-10T03:38:55.285Z,1.25
2023-04-10T03:41:25.557Z,1.14
2023-04-10T03:43:53.936Z,1.02
2023-04-10T03:46:22.715Z,1.08
2023-04-10T03:48:52.803Z,1.06
2023-04-10T03:51:23.416Z,1.02
2023-04-10T03:53:52.269Z,0.99
2023-04-10T03:56:20.498Z,0.95
2023-04-10T03:58:49.787Z,0.95
2023-04-10T04:01:17.691Z,0.91
2023-04-10T04:03:58.949Z,1.01
2023-04-10T04:06:48.667Z,0.95
2023-04-10T04:09:48.757Z,1.00
2023-04-10T04:12:16.487Z,1.03
2023-04-10T04:15:12.157Z,1.03
2023-04-10T04:17:48.927Z,1.02
2023-04-10T04:20:40.065Z,1.06
2023-04-10T04:23:34.288Z,1.06
2023-04-10T04:26:27.590Z,1.14
2023-04-10T04:29:14.053Z,1.16
2023-04-10T04:32:03.540Z,1.29
2023-04-10T04:34:49.978Z,1.29
2023-04-10T04:37:33.361Z,1.20
2023-04-10T04:40:37.686Z,1.25
2023-04-10T04:43:11.892Z,1.21
2023-04-10T04:46:02.503Z,1.20
2023-04-10T04:49:00.820Z,1.18
2023-04-10T04:51:38.167Z,1.16
2023-04-10T04:54:10.443Z,1.17
2023-04-10T04:56:56.831Z,1.23
2023-04-10T04:59:44.871Z,1.23
2023-04-10T05:02:38.932Z,1.24
2023-04-10T05:05:18.132Z,1.33
2023-04-10T05:07:52.450Z,1.38
2023-04-10T05:10:39.348Z,1.35
2023-04-10T05:13:30.314Z,1.40
2023-04-10T05:16:14.395Z,1.50
2023-04-10T05:19:01.311Z,1.56
2023-04-10T05:21:54.464Z,1.56
2023-04-10T05:24:42.556Z,1.57
2023-04-10T05:27:16.342Z,1.63
2023-04-10T05:30:04.508Z,1.79
2023-04-10T05:32:42.749Z,1.89
2023-04-10T05:35:19.790Z,2.03
2023-04-10T05:38:13.480Z,2.34
2023-04-10T05:40:46.759Z,2.38
2023-04-10T05:43:33.144Z,2.56
2023-04-10T05:46:21.257Z,2.53
2023-04-10T05:49:22.450Z,2.66
2023-04-10T05:52:08.838Z,2.64
2023-04-10T05:54:56.723Z,2.76
2023-04-10T05:57:33.366Z,3.01
2023-04-10T06:00:19.171Z,3.15
2023-04-10T06:03:07.049Z,3.35
2023-04-10T06:05:45.894Z,3.39
2023-04-10T06:08:13.700Z,3.56
2023-04-10T06:10:44.392Z,3.63
2023-04-10T06:13:12.666Z,3.81
2023-04-10T06:15:40.634Z,3.94
2023-04-10T06:18:09.125Z,4.10
2023-04-10T06:20:38.560Z,4.16
2023-04-10T06:23:06.883Z,4.30
2023-04-10T06:25:34.775Z,4.44
2023-04-10T06:28:03.983Z,4.71
2023-04-10T06:30:33.913Z,4.78
2023-04-10T06:33:02.399Z,4.96
2023-04-10T06:35:32.814Z,6.69
2023-04-10T06:38:00.727Z,7.16
2023-04-10T06:40:30.926Z,7.88
2023-04-10T06:42:58.690Z,8.19
2023-04-10T06:45:36.816Z,8.61
2023-04-10T06:48:04.981Z,8.92
2023-04-10T06:50:33.532Z,8.86
2023-04-10T06:53:01.558Z,9.01
2023-04-10T06:55:29.456Z,8.65
2023-04-10T06:57:57.592Z,9.12
2023-04-10T07:00:25.836Z,8.20
2023-04-10T07:02:55.273Z,8.33
2023-04-10T07:05:23.685Z,8.69
2023-04-10T07:07:51.775Z,9.18
2023-04-10T07:10:19.614Z,9.05
2023-04-10T07:12:47.453Z,8.72
2023-04-10T07:15:15.251Z,8.74
2023-04-10T07:17:43.210Z,8.76
2023-04-10T07:20:13.236Z,8.58
2023-04-10T07:22:41.206Z,8.93
2023-04-10T07:25:10.055Z,8.63
2023-04-10T07:27:37.836Z,8.62
2023-04-10T07:30:06.850Z,8.42
2023-04-10T07:32:35.288Z,8.50
2023-04-10T07:35:03.190Z,8.80
2023-04-10T07:37:32.315Z,8.83
2023-04-10T07:40:00.538Z,8.36
2023-04-10T07:42:28.286Z,7.91
2023-04-10T07:44:56.114Z,8.15
2023-04-10T07:47:23.890Z,7.96
2023-04-10T07:49:52.309Z,7.76
2023-04-10T07:52:20.032Z,7.82
2023-04-10T07:54:49.236Z,7.71
2023-04-10T07:57:17.521Z,7.80
2023-04-10T07:59:45.387Z,7.91
2023-04-10T08:02:13.310Z,8.00
2023-04-10T08:04:43.244Z,8.12
2023-04-10T08:07:11.104Z,8.07
2023-04-10T08:09:38.892Z,8.25
2023-04-10T08:12:08.184Z,8.25
2023-04-10T08:14:35.936Z,8.44
2023-04-10T08:17:03.852Z,8.62
2023-04-10T08:19:31.808Z,8.55
2023-04-10T08:21:59.697Z,8.76
2023-04-10T08:24:27.583Z,8.88
2023-04-10T08:26:55.363Z,9.14
2023-04-10T08:32:00.533Z,9.15
2023-04-10T08:34:28.441Z,8.98
2023-04-10T08:37:12.322Z,9.10
2023-04-10T08:39:40.517Z,9.19
2023-04-10T08:42:08.720Z,9.42
2023-04-10T08:44:39.104Z,9.50
2023-04-10T08:47:07.918Z,9.71
2023-04-10T08:49:44.890Z,9.75
2023-04-10T08:52:16.850Z,9.48
2023-04-10T08:54:49.070Z,9.37
2023-04-10T08:57:20.630Z,9.51
2023-04-10T08:59:51.553Z,9.65
2023-04-10T09:02:20.110Z,9.90
2023-04-10T09:04:50.301Z,9.99
2023-04-10T09:07:18.575Z,10.20
2023-04-10T09:09:46.396Z,10.33
2023-04-10T09:12:15.560Z,10.62
2023-04-10T09:14:44.139Z,10.74
2023-04-10T09:17:15.762Z,10.65
2023-04-10T09:19:44.926Z,10.57
2023-04-10T09:22:13.203Z,10.75
2023-04-10T09:24:43.187Z,10.98
2023-04-10T09:27:11.852Z,10.74
2023-04-10T09:29:42.506Z,10.92
2023-04-10T09:32:10.494Z,11.10
2023-04-10T09:34:54.614Z,11.16
2023-04-10T09:37:22.756Z,11.43
2023-04-10T09:39:50.709Z,11.48
2023-04-10T09:42:31.367Z,11.68
2023-04-10T09:44:59.550Z,11.83
2023-04-10T09:47:27.396Z,11.86
2023-04-10T09:50:00.233Z,11.80
2023-04-10T09:52:29.547Z,11.83
2023-04-10T09:54:58.971Z,11.94
2023-04-10T09:57:30.748Z,11.77
2023-04-10T09:59:59.966Z,11.92
2023-04-10T10:02:31.399Z,12.36
2023-04-10T10:05:01.732Z,12.86
2023-04-10T10:07:31.635Z,12.85
2023-04-10T10:09:59.837Z,12.80
2023-04-10T10:12:35.231Z,12.95
2023-04-10T10:15:10.151Z,12.57
2023-04-10T10:17:43.346Z,12.43
2023-04-10T10:20:14.492Z,12.77
2023-04-10T10:22:43.280Z,12.91
2023-04-10T10:25:11.862Z,13.15
2023-04-10T10:27:41.138Z,13.33
2023-04-10T10:30:28.359Z,13.35
2023-04-10T10:32:58.876Z,13.26
2023-04-10T10:35:29.947Z,13.36
2023-04-10T10:38:00.270Z,13.43
2023-04-10T10:40:33.468Z,13.31
2023-04-10T10:43:14.668Z,13.56
2023-04-10T10:45:49.365Z,13.55
2023-04-10T10:48:17.230Z,13.58
2023-04-10T10:50:58.837Z,13.72
2023-04-10T10:53:36.172Z,13.54
2023-04-10T10:56:34.455Z,13.67
2023-04-10T10:59:02.998Z,13.52
2023-04-10T11:01:30.848Z,13.65
2023-04-10T11:03:59.996Z,13.89
2023-04-10T11:06:52.298Z,13.71
2023-04-10T11:09:48.739Z,13.91
2023-04-10T11:12:17.407Z,14.11
2023-04-10T11:14:46.296Z,14.29
2023-04-10T11:17:14.151Z,14.30
2023-04-10T11:20:01.824Z,14.11
2023-04-10T11:22:31.319Z,13.96
2023-04-10T11:25:02.449Z,14.34
2023-04-10T11:27:46.270Z,14.55
2023-04-10T11:30:30.639Z,14.47
2023-04-10T11:32:59.219Z,14.53
2023-04-10T11:35:28.266Z,14.84
2023-04-10T11:38:27.778Z,14.96
2023-04-10T11:41:04.248Z,14.77
2023-04-10T11:43:32.546Z,14.74
2023-04-10T11:46:05.296Z,14.84
2023-04-10T11:48:33.667Z,14.63
2023-04-10T11:51:08.582Z,14.48
2023-04-10T11:53:38.368Z,14.36
2023-04-10T11:56:07.732Z,14.38
2023-04-10T11:58:35.521Z,14.06
2023-04-10T12:01:04.503Z,14.73
2023-04-10T12:03:37.500Z,15.26
2023-04-10T12:06:08.836Z,15.57
2023-04-10T12:08:39.629Z,15.54
2023-04-10T12:11:08.430Z,15.42
2023-04-10T12:13:36.964Z,15.17
2023-04-10T12:16:07.854Z,15.38
2023-04-10T12:18:36.167Z,15.25
2023-04-10T12:21:07.476Z,14.99
2023-04-10T12:23:40.135Z,15.74
2023-04-10T12:26:15.746Z,15.86
2023-04-10T12:28:50.388Z,16.24
2023-04-10T12:31:18.435Z,16.16
2023-04-10T12:33:47.298Z,15.38
2023-04-10T12:36:22.377Z,15.89
2023-04-10T12:38:51.884Z,15.99
2023-04-10T12:41:27.088Z,15.60
2023-04-10T12:44:07.471Z,15.94
2023-04-10T12:46:36.480Z,15.69
2023-04-10T12:49:12.047Z,16.12
2023-04-10T12:51:47.384Z,16.42
2023-04-10T12:54:33.487Z,16.32
2023-04-10T12:57:05.204Z,16.16
2023-04-10T12:59:33.716Z,16.83
2023-04-10T13:02:01.747Z,16.36
2023-04-10T13:04:33.028Z,16.58
2023-04-10T13:07:01.191Z,16.01
2023-04-10T13:09:29.007Z,15.63
2023-04-10T13:11:58.385Z,16.14
2023-04-10T13:14:26.210Z,16.19
2023-04-10T13:16:53.989Z,15.69
2023-04-10T13:19:21.748Z,16.11
2023-04-10T13:21:50.726Z,16.01
2023-04-10T13:24:18.536Z,16.17
2023-04-10T13:26:46.428Z,16.79
2023-04-10T13:29:15.732Z,17.12
2023-04-10T13:31:43.536Z,17.36
2023-04-10T13:34:11.608Z,17.50
2023-04-10T13:36:39.799Z,18.00
2023-04-10T13:39:07.717Z,18.10
2023-04-10T13:41:35.932Z,17.37
2023-04-10T13:44:03.770Z,16.67
2023-04-10T13:46:34.072Z,16.56
2023-04-10T13:49:02.194Z,16.40
2023-04-10T13:51:30.052Z,15.78
2023-04-10T13:53:58.835Z,16.13
2023-04-10T13:56:26.828Z,16.69
2023-04-10T13:58:54.768Z,16.55
2023-04-10T14:01:23.149Z,16.86
2023-04-10T14:03:52.477Z,16.93
2023-04-10T14:06:20.315Z,17.10
2023-04-10T14:08:48.170Z,17.23
2023-04-10T14:11:16.725Z,17.43
2023-04-10T14:13:44.491Z,17.04
2023-04-10T14:16:13.012Z,17.45
2023-04-10T14:18:41.556Z,16.72
2023-04-10T14:21:13.564Z,16.72
2023-04-10T14:23:42.294Z,17.11
2023-04-10T14:26:10.149Z,17.17
2023-04-10T14:28:38.322Z,17.20
2023-04-10T14:31:08.043Z,17.56
2023-04-10T14:33:36.195Z,17.75
2023-04-10T14:36:04.317Z,17.49
2023-04-10T14:38:34.151Z,17.30
2023-04-10T14:41:02.091Z,17.02
2023-04-10T14:43:29.893Z,17.18
2023-04-10T14:45:57.688Z,17.23
2023-04-10T14:48:26.242Z,17.30
2023-04-10T14:50:54.982Z,17.25
2023-04-10T14:53:23.331Z,16.98
2023-04-10T14:55:52.787Z,17.13
2023-04-10T14:58:20.681Z,17.06
2023-04-10T15:00:50.712Z,16.56
2023-04-10T15:03:19.141Z,16.95
2023-04-10T15:05:47.259Z,16.86
2023-04-10T15:08:15.541Z,17.02
2023-04-10T15:10:43.389Z,16.79
2023-04-10T15:13:12.708Z,17.19
2023-04-10T15:15:43.401Z,17.59
2023-04-10T15:18:11.287Z,17.82
2023-04-10T15:20:39.268Z,17.28
2023-04-10T15:23:07.426Z,16.97
2023-04-10T15:25:35.907Z,17.11
2023-04-10T15:28:03.819Z,17.09
2023-04-10T15:30:33.550Z,17.15
2023-04-10T15:33:01.905Z,16.75
2023-04-10T15:35:30.513Z,17.01
2023-04-10T15:37:58.734Z,16.63
2023-04-10T15:40:26.921Z,16.28
2023-04-10T15:42:55.042Z,16.87
2023-04-10T15:45:23.345Z,17.07
2023-04-10T15:47:52.952Z,16.95
2023-04-10T15:50:20.835Z,16.96
2023-04-10T15:52:48.594Z,16.93
2023-04-10T15:55:17.086Z,17.15
2023-04-10T15:57:45.442Z,17.60
2023-04-10T16:00:14.685Z,17.51
2023-04-10T16:02:42.837Z,16.99
2023-04-10T16:05:12.314Z,16.56
2023-04-10T16:07:42.194Z,16.54
2023-04-10T16:10:11.527Z,16.24
2023-04-10T16:12:39.539Z,16.12
2023-04-10T16:15:09.052Z,16.06
2023-04-10T16:17:36.912Z,15.68
2023-04-10T16:20:06.844Z,15.32
2023-04-10T16:22:36.864Z,15.13
2023-04-10T16:25:05.254Z,15.16
2023-04-10T16:27:35.693Z,15.17
2023-04-10T16:30:05.801Z,15.38
2023-04-10T16:32:34.354Z,15.48
2023-04-10T16:35:02.262Z,15.46
2023-04-10T16:37:34.364Z,15.36
2023-04-10T16:40:04.413Z,15.30
2023-04-10T16:42:32.328Z,15.38
2023-04-10T16:45:04.209Z,15.06
2023-04-10T16:47:32.191Z,14.97
2023-04-10T16:50:00.269Z,14.76
2023-04-10T16:52:28.465Z,14.74
2023-04-10T16:54:56.470Z,14.68
2023-04-10T16:57:26.008Z,14.52
2023-04-10T16:59:57.089Z,14.44
2023-04-10T17:02:25.603Z,14.33
2023-04-10T17:04:55.558Z,14.30
2023-04-10T17:07:23.939Z,14.21
2023-04-10T17:09:52.277Z,14.12
2023-04-10T17:12:20.148Z,14.05
2023-04-10T17:14:49.872Z,13.77
2023-04-10T17:17:17.864Z,13.72
2023-04-10T17:19:45.977Z,13.67
2023-04-10T17:22:16.565Z,13.53
2023-04-10T17:24:44.717Z,13.46
2023-04-10T17:27:13.134Z,13.34
2023-04-10T17:29:41.379Z,13.22
2023-04-10T17:32:10.868Z,13.10
2023-04-10T17:34:38.733Z,13.09
2023-04-10T17:37:06.634Z,12.96
2023-04-10T17:39:34.459Z,12.94
2023-04-10T17:42:02.434Z,12.90
2023-04-10T17:44:30.240Z,12.74
2023-04-10T17:46:58.372Z,12.70
2023-04-10T17:49:27.558Z,12.67
2023-04-10T17:51:55.329Z,12.55
2023-04-10T17:54:23.267Z,12.46
2023-04-10T17:56:53.317Z,12.47
2023-04-10T17:59:21.112Z,12.40
2023-04-10T18:01:49.127Z,12.39
2023-04-10T18:04:17.075Z,12.36
2023-04-10T18:06:46.481Z,12.23
2023-04-10T18:09:14.759Z,12.23
2023-04-10T18:11:42.616Z,12.18
2023-04-10T18:14:11.131Z,12.13
2023-04-10T18:16:38.974Z,12.06
2023-04-10T18:19:07.249Z,12.05
2023-04-10T18:21:35.701Z,11.99
2023-04-10T18:24:05.116Z,11.95
2023-04-10T18:26:34.813Z,11.92
2023-04-10T18:29:02.711Z,11.84
2023-04-10T18:31:30.908Z,11.75
2023-04-10T18:34:07.112Z,11.75
2023-04-10T18:36:36.486Z,11.69
2023-04-10T18:39:05.849Z,11.64
2023-04-10T18:41:33.828Z,11.60
2023-04-10T18:44:05.364Z,11.61
2023-04-10T18:46:33.794Z,11.59
2023-04-10T18:49:03.046Z,11.50
2023-04-10T18:51:33.908Z,11.49
2023-04-10T18:54:03.021Z,11.49
2023-04-10T18:56:32.610Z,11.44
2023-04-10T18:59:00.637Z,11.39
2023-04-10T19:01:28.935Z,11.27
2023-04-10T19:03:57.486Z,11.25
2023-04-10T19:06:26.852Z,11.17
2023-04-10T19:08:55.793Z,11.01
2023-04-10T19:11:23.791Z,10.99
2023-04-10T19:13:53.345Z,10.99
2023-04-10T19:16:21.423Z,10.89
2023-04-10T19:18:49.807Z,10.88
2023-04-10T19:21:17.579Z,10.84
2023-04-10T19:23:46.446Z,10.79
2023-04-10T19:26:14.213Z,10.75
2023-04-10T19:28:42.135Z,10.69
2023-04-10T19:31:11.567Z,10.64
2023-04-10T19:33:39.491Z,10.54
2023-04-10T19:36:08.613Z,10.50
2023-04-10T19:38:36.673Z,10.46
2023-04-10T19:41:04.528Z,10.43
2023-04-10T19:43:33.526Z,10.38
2023-04-10T19:46:01.276Z,10.39
2023-04-10T19:48:30.630Z,10.42
2023-04-10T19:51:07.261Z,10.35
2023-04-10T19:53:35.068Z,10.36
2023-04-10T19:56:03.043Z,10.36
2023-04-10T20:01:04.390Z,10.35
2023-04-10T20:03:34.139Z,10.43
2023-04-10T20:06:03.622Z,10.40
2023-04-10T20:08:31.763Z,10.34
2023-04-10T20:10:59.797Z,10.38
2023-04-10T20:13:27.602Z,10.34
2023-04-10T20:15:55.465Z,10.43
2023-04-10T20:18:23.330Z,10.43
2023-04-10T20:20:52.452Z,10.46
2023-04-10T20:23:20.283Z,10.46
2023-04-10T20:25:48.060Z,10.50
2023-04-10T20:28:17.334Z,10.41
2023-04-10T20:30:45.333Z,10.41
2023-04-10T20:33:13.169Z,10.36
2023-04-10T20:35:40.967Z,10.33
2023-04-10T20:38:10.145Z,10.24
2023-04-10T20:40:37.895Z,10.32
2023-04-10T20:43:10.845Z,10.35
2023-04-10T20:45:38.944Z,10.32
2023-04-10T20:48:07.647Z,10.24
2023-04-10T20:50:36.904Z,10.22
2023-04-10T20:53:04.746Z,10.25
2023-04-10T20:55:38.616Z,10.09
2023-04-10T20:58:07.245Z,9.90
2023-04-10T21:00:35.830Z,9.88
2023-04-10T21:03:03.876Z,9.78
2023-04-10T21:05:31.816Z,9.69
2023-04-10T21:07:59.679Z,9.64
2023-04-10T21:10:27.459Z,9.64
2023-04-10T21:12:56.688Z,9.64
2023-04-10T21:15:24.495Z,9.52
2023-04-10T21:17:52.436Z,9.51
2023-04-10T21:20:20.372Z,9.49
2023-04-10T21:22:48.180Z,9.43
2023-04-10T21:25:16.091Z,9.41
2023-04-10T21:27:43.911Z,9.44
2023-04-10T21:30:13.564Z,9.42
2023-04-10T21:32:41.439Z,9.33
2023-04-10T21:35:09.789Z,9.33
2023-04-10T21:37:37.564Z,9.33
2023-04-10T21:40:06.415Z,9.33
2023-04-10T21:42:34.206Z,9.30
2023-04-10T21:45:01.997Z,9.35
2023-04-10T21:47:31.156Z,9.22
2023-04-10T21:49:58.962Z,9.33
2023-04-10T21:52:26.777Z,9.35
2023-04-10T21:54:54.614Z,9.30
2023-04-10T21:57:22.432Z,9.26
2023-04-10T21:59:50.260Z,9.27
2023-04-10T22:02:18.160Z,9.26
2023-04-10T22:04:53.988Z,9.26
2023-04-10T22:07:22.779Z,11.86
2023-04-10T22:09:50.641Z,13.20
2023-04-10T22:12:18.412Z,12.85
2023-04-10T22:14:49.344Z,12.06
2023-04-10T22:17:17.151Z,11.64
2023-04-10T22:19:44.955Z,11.49
2023-04-10T22:22:14.068Z,11.35
2023-04-10T22:24:41.949Z,11.33
2023-04-10T22:27:09.726Z,11.23
2023-04-10T22:29:37.555Z,10.87
2023-04-10T22:32:05.544Z,10.68
2023-04-10T22:34:33.335Z,10.58
2023-04-10T22:37:01.078Z,10.49
2023-04-10T22:39:30.274Z,10.42
2023-04-10T22:41:58.017Z,10.52
2023-04-10T22:44:25.832Z,10.53
2023-04-10T22:46:53.638Z,10.92
2023-04-10T22:49:21.439Z,10.89
2023-04-10T22:51:49.319Z,10.94
2023-04-10T22:54:17.113Z,10.91
2023-04-10T22:56:46.274Z,10.76
2023-04-10T22:59:14.099Z,10.98
2023-04-10T23:01:41.974Z,10.86
2023-04-10T23:04:09.849Z,10.85
2023-04-10T23:06:37.630Z,10.73
2023-04-10T23:09:05.508Z,10.65
2023-04-10T23:11:33.325Z,10.64
2023-04-10T23:14:02.478Z,10.81
2023-04-10T23:16:30.296Z,10.79
2023-04-10T23:18:58.059Z,10.71
2023-04-10T23:21:27.081Z,10.62
2023-04-10T23:23:54.858Z,10.71
2023-04-10T23:26:22.723Z,10.66
2023-04-10T23:28:50.591Z,10.71
2023-04-10T23:31:19.735Z,10.73
2023-04-10T23:33:47.557Z,10.70
2023-04-10T23:36:15.504Z,10.87
2023-04-10T23:38:43.388Z,10.93
2023-04-10T23:41:11.154Z,11.03
2023-04-10T23:43:39.045Z,11.00
2023-04-10T23:46:07.353Z,11.05
2023-04-10T23:48:36.522Z,11.09
2023-04-10T23:51:05.350Z,11.27
2023-04-10T23:53:33.511Z,11.23
2023-04-10T23:56:01.465Z,11.12
2023-04-10T23:58:29.239Z,11.18
